sensor_id;sensor_type;location;lat;lon;timestamp;pressure;altitude;pressure_sealevel;temperature;humidity
14594;BME280;7383;52.354;9.756;2023-03-22T00:01:33;-12652.78;;;11.34;100.00
14594;BME280;7383;52.354;9.756;2023-03-22T00:04:00;-12652.41;;;11.32;100.00
14594;BME280;7383;52.354;9.756;2023-03-22T00:06:27;-12652.06;;;11.30;100.00
14594;BME280;7383;52.354;9.756;2023-03-22T00:08:55;-12651.63;;;11.28;100.00
14594;BME280;7383;52.354;9.756;2023-03-22T00:11:22;-12651.91;;;11.29;100.00
14594;BME280;7383;52.354;9.756;2023-03-22T00:13:50;-12651.38;;;11.26;100.00
14594;BME280;7383;52.354;9.756;2023-03-22T00:16:18;-12651.38;;;11.26;100.00
14594;BME280;7383;52.354;9.756;2023-03-22T00:18:44;-12651.56;;;11.27;100.00
14594;BME280;7383;52.354;9.756;2023-03-22T00:21:12;-12651.56;;;11.27;100.00
14594;BME280;7383;52.354;9.756;2023-03-22T00:23:39;-12651.38;;;11.26;100.00
14594;BME280;7383;52.354;9.756;2023-03-22T00:26:09;-12651.38;;;11.26;100.00
14594;BME280;7383;52.354;9.756;2023-03-22T00:28:35;-12651.19;;;11.25;100.00
14594;BME280;7383;52.354;9.756;2023-03-22T00:31:03;-12650.94;;;11.24;100.00
14594;BME280;7383;52.354;9.756;2023-03-22T00:33:30;-12649.63;;;11.16;100.00
14594;BME280;7383;52.354;9.756;2023-03-22T00:35:59;-12649.09;;;11.13;100.00
14594;BME280;7383;52.354;9.756;2023-03-22T00:38:26;-12648.66;;;11.11;100.00
14594;BME280;7383;52.354;9.756;2023-03-22T00:41:08;-12649.28;;;11.14;100.00
14594;BME280;7383;52.354;9.756;2023-03-22T00:43:35;-12649.38;;;11.15;100.00
14594;BME280;7383;52.354;9.756;2023-03-22T00:46:01;-12649.47;;;11.15;100.00
14594;BME280;7383;52.354;9.756;2023-03-22T00:48:28;-12649.19;;;11.14;100.00
14594;BME280;7383;52.354;9.756;2023-03-22T00:50:54;-12649.53;;;11.16;100.00
14594;BME280;7383;52.354;9.756;2023-03-22T00:53:21;-12649.47;;;11.15;100.00
14594;BME280;7383;52.354;9.756;2023-03-22T00:55:49;-12649.63;;;11.16;100.00
14594;BME280;7383;52.354;9.756;2023-03-22T00:58:17;-12649.81;;;11.17;100.00
14594;BME280;7383;52.354;9.756;2023-03-22T01:00:44;-12649.63;;;11.16;100.00
14594;BME280;7383;52.354;9.756;2023-03-22T01:03:10;-12650.41;;;11.21;100.00
14594;BME280;7383;52.354;9.756;2023-03-22T01:05:38;-12650.84;;;11.23;100.00
14594;BME280;7383;52.354;9.756;2023-03-22T01:08:05;-12650.84;;;11.23;100.00
14594;BME280;7383;52.354;9.756;2023-03-22T01:10:33;-12650.84;;;11.23;100.00
14594;BME280;7383;52.354;9.756;2023-03-22T01:12:59;-12651.19;;;11.25;100.00
14594;BME280;7383;52.354;9.756;2023-03-22T01:15:27;-12650.94;;;11.24;100.00
14594;BME280;7383;52.354;9.756;2023-03-22T01:17:53;-12650.50;;;11.21;100.00
14594;BME280;7383;52.354;9.756;2023-03-22T01:20:20;-12649.47;;;11.15;100.00
14594;BME280;7383;52.354;9.756;2023-03-22T01:22:46;-12649.81;;;11.17;100.00
14594;BME280;7383;52.354;9.756;2023-03-22T01:25:13;-12650.25;;;11.20;100.00
14594;BME280;7383;52.354;9.756;2023-03-22T01:27:40;-12650.41;;;11.21;100.00
14594;BME280;7383;52.354;9.756;2023-03-22T01:30:08;-12650.34;;;11.20;100.00
14594;BME280;7383;52.354;9.756;2023-03-22T01:32:36;-12649.91;;;11.18;100.00
14594;BME280;7383;52.354;9.756;2023-03-22T01:35:03;-12649.28;;;11.14;100.00
14594;BME280;7383;52.354;9.756;2023-03-22T01:37:30;-12649.53;;;11.16;100.00
14594;BME280;7383;52.354;9.756;2023-03-22T01:39:57;-12649.97;;;11.18;100.00
14594;BME280;7383;52.354;9.756;2023-03-22T01:42:24;-12650.59;;;11.22;100.00
14594;BME280;7383;52.354;9.756;2023-03-22T01:45:26;-12651.13;;;11.25;100.00
14594;BME280;7383;52.354;9.756;2023-03-22T01:48:00;-12651.28;;;11.26;100.00
14594;BME280;7383;52.354;9.756;2023-03-22T01:50:28;-12651.13;;;11.25;100.00
14594;BME280;7383;52.354;9.756;2023-03-22T01:52:56;-12651.56;;;11.27;100.00
14594;BME280;7383;52.354;9.756;2023-03-22T01:55:23;-12652.06;;;11.30;100.00
14594;BME280;7383;52.354;9.756;2023-03-22T01:57:52;-12652.00;;;11.30;100.00
14594;BME280;7383;52.354;9.756;2023-03-22T02:00:20;-12652.34;;;11.32;100.00
14594;BME280;7383;52.354;9.756;2023-03-22T02:02:48;-12652.41;;;11.32;100.00
14594;BME280;7383;52.354;9.756;2023-03-22T02:05:17;-12652.59;;;11.33;100.00
14594;BME280;7383;52.354;9.756;2023-03-22T02:07:47;-12652.41;;;11.32;100.00
14594;BME280;7383;52.354;9.756;2023-03-22T02:10:16;-12652.25;;;11.31;100.00
14594;BME280;7383;52.354;9.756;2023-03-22T02:13:04;-12652.50;;;11.33;100.00
14594;BME280;7383;52.354;9.756;2023-03-22T02:15:37;-12652.34;;;11.32;100.00
14594;BME280;7383;52.354;9.756;2023-03-22T02:18:24;-12652.50;;;11.33;100.00
14594;BME280;7383;52.354;9.756;2023-03-22T02:21:22;-12652.41;;;11.32;100.00
14594;BME280;7383;52.354;9.756;2023-03-22T02:24:22;-12652.50;;;11.33;100.00
14594;BME280;7383;52.354;9.756;2023-03-22T02:27:17;-12652.78;;;11.34;100.00
14594;BME280;7383;52.354;9.756;2023-03-22T02:29:53;-12652.78;;;11.34;100.00
14594;BME280;7383;52.354;9.756;2023-03-22T02:32:46;-12653.28;;;11.38;100.00
14594;BME280;7383;52.354;9.756;2023-03-22T02:35:29;-12653.28;;;11.38;100.00
14594;BME280;7383;52.354;9.756;2023-03-22T02:41:10;-12652.34;;;11.32;100.00
14594;BME280;7383;52.354;9.756;2023-03-22T02:43:42;-12651.91;;;11.29;100.00
14594;BME280;7383;52.354;9.756;2023-03-22T02:46:17;-12650.69;;;11.22;100.00
14594;BME280;7383;52.354;9.756;2023-03-22T02:48:52;-12650.59;;;11.22;100.00
14594;BME280;7383;52.354;9.756;2023-03-22T02:51:25;-12650.75;;;11.23;100.00
14594;BME280;7383;52.354;9.756;2023-03-22T02:53:57;-12650.59;;;11.22;100.00
14594;BME280;7383;52.354;9.756;2023-03-22T02:56:30;-12651.19;;;11.25;100.00
14594;BME280;7383;52.354;9.756;2023-03-22T02:59:02;-12651.38;;;11.26;100.00
14594;BME280;7383;52.354;9.756;2023-03-22T03:01:34;-12651.91;;;11.29;100.00
14594;BME280;7383;52.354;9.756;2023-03-22T03:04:06;-12651.13;;;11.25;100.00
14594;BME280;7383;52.354;9.756;2023-03-22T03:06:39;-12650.94;;;11.24;100.00
14594;BME280;7383;52.354;9.756;2023-03-22T03:09:11;-12651.03;;;11.24;100.00
14594;BME280;7383;52.354;9.756;2023-03-22T03:11:44;-12650.75;;;11.23;100.00
14594;BME280;7383;52.354;9.756;2023-03-22T03:14:19;-12651.38;;;11.26;100.00
14594;BME280;7383;52.354;9.756;2023-03-22T03:16:48;-12651.72;;;11.28;100.00
14594;BME280;7383;52.354;9.756;2023-03-22T03:19:22;-12651.38;;;11.26;100.00
14594;BME280;7383;52.354;9.756;2023-03-22T03:21:59;-12649.97;;;11.18;100.00
14594;BME280;7383;52.354;9.756;2023-03-22T03:24:32;-12649.63;;;11.16;100.00
14594;BME280;7383;52.354;9.756;2023-03-22T03:27:06;-12649.09;;;11.13;100.00
14594;BME280;7383;52.354;9.756;2023-03-22T03:29:37;-12649.09;;;11.13;100.00
14594;BME280;7383;52.354;9.756;2023-03-22T03:32:07;-12649.09;;;11.13;100.00
14594;BME280;7383;52.354;9.756;2023-03-22T03:34:40;-12648.50;;;11.10;100.00
14594;BME280;7383;52.354;9.756;2023-03-22T03:37:13;-12648.66;;;11.11;100.00
14594;BME280;7383;52.354;9.756;2023-03-22T03:39:47;-12648.75;;;11.11;100.00
14594;BME280;7383;52.354;9.756;2023-03-22T03:42:17;-12649.03;;;11.13;100.00
14594;BME280;7383;52.354;9.756;2023-03-22T03:44:44;-12648.59;;;11.10;100.00
14594;BME280;7383;52.354;9.756;2023-03-22T03:47:11;-12648.16;;;11.08;100.00
14594;BME280;7383;52.354;9.756;2023-03-22T03:49:38;-12647.88;;;11.06;100.00
14594;BME280;7383;52.354;9.756;2023-03-22T03:52:06;-12648.06;;;11.07;100.00
14594;BME280;7383;52.354;9.756;2023-03-22T03:54:32;-12648.59;;;11.10;100.00
14594;BME280;7383;52.354;9.756;2023-03-22T03:56:59;-12648.75;;;11.11;100.00
14594;BME280;7383;52.354;9.756;2023-03-22T03:59:27;-12648.25;;;11.08;100.00
14594;BME280;7383;52.354;9.756;2023-03-22T04:01:56;-12648.31;;;11.09;100.00
14594;BME280;7383;52.354;9.756;2023-03-22T04:04:23;-12648.66;;;11.11;100.00
14594;BME280;7383;52.354;9.756;2023-03-22T04:06:52;-12649.03;;;11.13;100.00
14594;BME280;7383;52.354;9.756;2023-03-22T04:09:21;-12649.03;;;11.13;100.00
14594;BME280;7383;52.354;9.756;2023-03-22T04:11:47;-12649.19;;;11.14;100.00
14594;BME280;7383;52.354;9.756;2023-03-22T04:14:14;-12649.03;;;11.13;100.00
14594;BME280;7383;52.354;9.756;2023-03-22T04:16:41;-12649.63;;;11.16;100.00
14594;BME280;7383;52.354;9.756;2023-03-22T04:19:08;-12649.81;;;11.17;100.00
14594;BME280;7383;52.354;9.756;2023-03-22T04:21:36;-12649.19;;;11.14;100.00
14594;BME280;7383;52.354;9.756;2023-03-22T04:24:03;-12649.19;;;11.14;100.00
14594;BME280;7383;52.354;9.756;2023-03-22T04:26:30;-12649.03;;;11.13;100.00
14594;BME280;7383;52.354;9.756;2023-03-22T04:28:56;-12648.84;;;11.12;100.00
14594;BME280;7383;52.354;9.756;2023-03-22T04:31:23;-12649.09;;;11.13;100.00
14594;BME280;7383;52.354;9.756;2023-03-22T04:33:51;-12649.38;;;11.15;100.00
14594;BME280;7383;52.354;9.756;2023-03-22T04:36:20;-12648.94;;;11.12;100.00
14594;BME280;7383;52.354;9.756;2023-03-22T04:38:47;-12649.09;;;11.13;100.00
14594;BME280;7383;52.354;9.756;2023-03-22T04:41:16;-12649.47;;;11.15;100.00
14594;BME280;7383;52.354;9.756;2023-03-22T04:43:43;-12648.94;;;11.12;100.00
14594;BME280;7383;52.354;9.756;2023-03-22T04:46:12;-12648.84;;;11.12;100.00
14594;BME280;7383;52.354;9.756;2023-03-22T04:48:39;-12648.84;;;11.12;100.00
14594;BME280;7383;52.354;9.756;2023-03-22T04:51:09;-12648.84;;;11.12;100.00
14594;BME280;7383;52.354;9.756;2023-03-22T04:53:36;-12648.75;;;11.11;100.00
14594;BME280;7383;52.354;9.756;2023-03-22T04:56:04;-12647.88;;;11.06;100.00
14594;BME280;7383;52.354;9.756;2023-03-22T04:58:33;-12647.44;;;11.04;100.00
14594;BME280;7383;52.354;9.756;2023-03-22T05:01:02;-12647.53;;;11.04;100.00
14594;BME280;7383;52.354;9.756;2023-03-22T05:03:28;-12647.53;;;11.04;100.00
14594;BME280;7383;52.354;9.756;2023-03-22T05:05:56;-12647.53;;;11.04;100.00
14594;BME280;7383;52.354;9.756;2023-03-22T05:08:26;-12646.31;;;10.97;100.00
14594;BME280;7383;52.354;9.756;2023-03-22T05:10:53;-12646.31;;;10.97;100.00
14594;BME280;7383;52.354;9.756;2023-03-22T05:13:22;-12647.00;;;11.01;100.00
14594;BME280;7383;52.354;9.756;2023-03-22T05:15:49;-12646.31;;;10.97;100.00
14594;BME280;7383;52.354;9.756;2023-03-22T05:18:16;-12646.31;;;10.97;100.00
14594;BME280;7383;52.354;9.756;2023-03-22T05:20:45;-12647.38;;;11.03;100.00
14594;BME280;7383;52.354;9.756;2023-03-22T05:23:12;-12646.66;;;10.99;100.00
14594;BME280;7383;52.354;9.756;2023-03-22T05:25:40;-12646.41;;;10.98;100.00
14594;BME280;7383;52.354;9.756;2023-03-22T05:28:09;-12645.97;;;10.95;100.00
14594;BME280;7383;52.354;9.756;2023-03-22T05:30:38;-12645.88;;;10.95;100.00
14594;BME280;7383;52.354;9.756;2023-03-22T05:33:05;-12646.84;;;11.00;100.00
14594;BME280;7383;52.354;9.756;2023-03-22T05:35:33;-12647.09;;;11.02;100.00
14594;BME280;7383;52.354;9.756;2023-03-22T05:38:00;-12647.00;;;11.01;100.00
14594;BME280;7383;52.354;9.756;2023-03-22T05:40:27;-12647.81;;;11.06;100.00
14594;BME280;7383;52.354;9.756;2023-03-22T05:42:55;-12648.59;;;11.10;100.00
14594;BME280;7383;52.354;9.756;2023-03-22T05:45:22;-12649.09;;;11.13;100.00
14594;BME280;7383;52.354;9.756;2023-03-22T05:47:49;-12649.28;;;11.14;100.00
14594;BME280;7383;52.354;9.756;2023-03-22T05:50:19;-12649.47;;;11.15;100.00
14594;BME280;7383;52.354;9.756;2023-03-22T05:52:46;-12649.72;;;11.17;100.00
14594;BME280;7383;52.354;9.756;2023-03-22T05:55:13;-12649.72;;;11.17;100.00
14594;BME280;7383;52.354;9.756;2023-03-22T05:57:41;-12649.47;;;11.15;100.00
14594;BME280;7383;52.354;9.756;2023-03-22T06:00:13;-12649.63;;;11.16;100.00
14594;BME280;7383;52.354;9.756;2023-03-22T06:02:41;-12649.19;;;11.14;100.00
14594;BME280;7383;52.354;9.756;2023-03-22T06:05:08;-12649.97;;;11.18;100.00
14594;BME280;7383;52.354;9.756;2023-03-22T06:07:35;-12650.69;;;11.22;100.00
14594;BME280;7383;52.354;9.756;2023-03-22T06:10:03;-12648.94;;;11.12;100.00
14594;BME280;7383;52.354;9.756;2023-03-22T06:12:29;-12648.59;;;11.10;100.00
14594;BME280;7383;52.354;9.756;2023-03-22T06:14:56;-12649.47;;;11.15;100.00
14594;BME280;7383;52.354;9.756;2023-03-22T06:17:24;-12648.66;;;11.11;100.00
14594;BME280;7383;52.354;9.756;2023-03-22T06:19:51;-12649.72;;;11.17;100.00
14594;BME280;7383;52.354;9.756;2023-03-22T06:22:18;-12650.84;;;11.23;100.00
14594;BME280;7383;52.354;9.756;2023-03-22T06:24:46;-12652.25;;;11.31;100.00
14594;BME280;7383;52.354;9.756;2023-03-22T06:27:13;-12652.78;;;11.34;100.00
14594;BME280;7383;52.354;9.756;2023-03-22T06:29:39;-12653.47;;;11.39;100.00
14594;BME280;7383;52.354;9.756;2023-03-22T06:32:06;-12653.91;;;11.41;100.00
14594;BME280;7383;52.354;9.756;2023-03-22T06:34:37;-12653.72;;;11.40;100.00
14594;BME280;7383;52.354;9.756;2023-03-22T06:37:03;-12653.81;;;11.41;100.00
14594;BME280;7383;52.354;9.756;2023-03-22T06:39:32;-12654.53;;;11.45;100.00
14594;BME280;7383;52.354;9.756;2023-03-22T06:41:59;-12657.13;;;11.60;100.00
14594;BME280;7383;52.354;9.756;2023-03-22T06:44:26;-12657.47;;;11.62;100.00
14594;BME280;7383;52.354;9.756;2023-03-22T06:46:52;-12657.31;;;11.61;100.00
14594;BME280;7383;52.354;9.756;2023-03-22T06:49:19;-12657.03;;;11.59;100.00
14594;BME280;7383;52.354;9.756;2023-03-22T06:51:47;-12657.91;;;11.64;100.00
14594;BME280;7383;52.354;9.756;2023-03-22T06:54:13;-12658.63;;;11.68;100.00
14594;BME280;7383;52.354;9.756;2023-03-22T06:56:41;-12659.31;;;11.72;100.00
14594;BME280;7383;52.354;9.756;2023-03-22T06:59:07;-12658.78;;;11.69;100.00
14594;BME280;7383;52.354;9.756;2023-03-22T07:01:34;-12658.97;;;11.70;100.00
14594;BME280;7383;52.354;9.756;2023-03-22T07:04:02;-12659.06;;;11.71;100.00
14594;BME280;7383;52.354;9.756;2023-03-22T07:06:28;-12658.44;;;11.67;100.00
14594;BME280;7383;52.354;9.756;2023-03-22T07:08:58;-12657.75;;;11.63;100.00
14594;BME280;7383;52.354;9.756;2023-03-22T07:11:26;-12656.97;;;11.59;100.00
14594;BME280;7383;52.354;9.756;2023-03-22T07:13:53;-12657.13;;;11.60;100.00
14594;BME280;7383;52.354;9.756;2023-03-22T07:16:19;-12656.88;;;11.58;100.00
14594;BME280;7383;52.354;9.756;2023-03-22T07:18:46;-12657.22;;;11.60;100.00
14594;BME280;7383;52.354;9.756;2023-03-22T07:21:13;-12656.53;;;11.56;100.00
14594;BME280;7383;52.354;9.756;2023-03-22T07:23:39;-12658.09;;;11.65;100.00
14594;BME280;7383;52.354;9.756;2023-03-22T07:26:07;-12659.50;;;11.73;100.00
14594;BME280;7383;52.354;9.756;2023-03-22T07:28:33;-12660.38;;;11.78;100.00
14594;BME280;7383;52.354;9.756;2023-03-22T07:31:01;-12662.81;;;11.93;100.00
14594;BME280;7383;52.354;9.756;2023-03-22T07:33:29;-12664.03;;;12.00;100.00
14594;BME280;7383;52.354;9.756;2023-03-22T07:35:55;-12665.59;;;12.09;100.00
14594;BME280;7383;52.354;9.756;2023-03-22T07:38:21;-12667.34;;;12.19;100.00
14594;BME280;7383;52.354;9.756;2023-03-22T07:40:58;-12668.47;;;12.25;100.00
14594;BME280;7383;52.354;9.756;2023-03-22T07:43:52;-12668.56;;;12.26;100.00
14594;BME280;7383;52.354;9.756;2023-03-22T07:46:19;-12669.34;;;12.30;100.00
14594;BME280;7383;52.354;9.756;2023-03-22T07:48:45;-12670.56;;;12.38;100.00
14594;BME280;7383;52.354;9.756;2023-03-22T07:51:12;-12671.59;;;12.44;100.00
14594;BME280;7383;52.354;9.756;2023-03-22T07:53:38;-12672.03;;;12.46;100.00
14594;BME280;7383;52.354;9.756;2023-03-22T07:56:06;-12673.88;;;12.57;100.00
14594;BME280;7383;52.354;9.756;2023-03-22T07:58:32;-12675.53;;;12.66;100.00
14594;BME280;7383;52.354;9.756;2023-03-22T08:01:04;-12677.69;;;12.79;100.00
14594;BME280;7383;52.354;9.756;2023-03-22T08:03:33;-12679.88;;;12.92;100.00
14594;BME280;7383;52.354;9.756;2023-03-22T08:06:00;-12680.47;;;12.95;100.00
14594;BME280;7383;52.354;9.756;2023-03-22T08:08:30;-12681.88;;;13.03;100.00
14594;BME280;7383;52.354;9.756;2023-03-22T08:10:57;-12681.25;;;13.00;100.00
14594;BME280;7383;52.354;9.756;2023-03-22T08:13:23;-12681.34;;;13.00;100.00
14594;BME280;7383;52.354;9.756;2023-03-22T08:15:50;-12681.78;;;13.03;100.00
14594;BME280;7383;52.354;9.756;2023-03-22T08:18:18;-12682.06;;;13.04;100.00
14594;BME280;7383;52.354;9.756;2023-03-22T08:20:44;-12683.00;;;13.10;100.00
14594;BME280;7383;52.354;9.756;2023-03-22T08:23:11;-12683.63;;;13.13;100.00
14594;BME280;7383;52.354;9.756;2023-03-22T08:25:40;-12683.63;;;13.13;100.00
14594;BME280;7383;52.354;9.756;2023-03-22T08:28:07;-12683.97;;;13.15;100.00
14594;BME280;7383;52.354;9.756;2023-03-22T08:30:34;-12684.56;;;13.19;100.00
14594;BME280;7383;52.354;9.756;2023-03-22T08:33:02;-12685.44;;;13.24;100.00
14594;BME280;7383;52.354;9.756;2023-03-22T08:35:30;-12686.31;;;13.29;100.00
14594;BME280;7383;52.354;9.756;2023-03-22T08:37:58;-12686.50;;;13.30;100.00
14594;BME280;7383;52.354;9.756;2023-03-22T08:40:25;-12686.75;;;13.31;100.00
14594;BME280;7383;52.354;9.756;2023-03-22T08:42:51;-12687.09;;;13.34;100.00
14594;BME280;7383;52.354;9.756;2023-03-22T08:45:18;-12687.53;;;13.36;100.00
14594;BME280;7383;52.354;9.756;2023-03-22T08:47:44;-12688.06;;;13.39;100.00
14594;BME280;7383;52.354;9.756;2023-03-22T08:50:11;-12687.97;;;13.39;100.00
14594;BME280;7383;52.354;9.756;2023-03-22T08:52:39;-12688.13;;;13.40;100.00
14594;BME280;7383;52.354;9.756;2023-03-22T08:55:07;-12688.13;;;13.40;100.00
14594;BME280;7383;52.354;9.756;2023-03-22T08:57:33;-12687.97;;;13.39;100.00
14594;BME280;7383;52.354;9.756;2023-03-22T09:00:00;-12688.22;;;13.40;100.00
14594;BME280;7383;52.354;9.756;2023-03-22T09:02:28;-12689.19;;;13.46;100.00
14594;BME280;7383;52.354;9.756;2023-03-22T09:04:55;-12690.56;;;13.54;100.00
14594;BME280;7383;52.354;9.756;2023-03-22T09:07:21;-12692.13;;;13.63;100.00
14594;BME280;7383;52.354;9.756;2023-03-22T09:09:49;-12693.28;;;13.69;100.00
14594;BME280;7383;52.354;9.756;2023-03-22T09:12:16;-12693.53;;;13.71;100.00
14594;BME280;7383;52.354;9.756;2023-03-22T09:14:42;-12692.75;;;13.66;100.00
14594;BME280;7383;52.354;9.756;2023-03-22T09:17:11;-12693.69;;;13.72;100.00
14594;BME280;7383;52.354;9.756;2023-03-22T09:19:37;-12695.19;;;13.80;100.00
14594;BME280;7383;52.354;9.756;2023-03-22T09:22:03;-12695.63;;;13.83;100.00
14594;BME280;7383;52.354;9.756;2023-03-22T09:24:30;-12695.00;;;13.79;100.00
14594;BME280;7383;52.354;9.756;2023-03-22T09:26:57;-12694.75;;;13.78;100.00
14594;BME280;7383;52.354;9.756;2023-03-22T09:29:24;-12695.09;;;13.80;100.00
14594;BME280;7383;52.354;9.756;2023-03-22T09:31:50;-12697.09;;;13.92;100.00
14594;BME280;7383;52.354;9.756;2023-03-22T09:34:17;-12699.00;;;14.03;100.00
14594;BME280;7383;52.354;9.756;2023-03-22T09:36:44;-12699.09;;;14.03;100.00
14594;BME280;7383;52.354;9.756;2023-03-22T09:39:11;-12700.31;;;14.10;100.00
14594;BME280;7383;52.354;9.756;2023-03-22T09:41:42;-12702.03;;;14.20;100.00
14594;BME280;7383;52.354;9.756;2023-03-22T09:44:13;-12703.34;;;14.28;100.00
14594;BME280;7383;52.354;9.756;2023-03-22T09:46:43;-12704.22;;;14.33;100.00
14594;BME280;7383;52.354;9.756;2023-03-22T09:49:14;-12705.00;;;14.38;100.00
14594;BME280;7383;52.354;9.756;2023-03-22T09:51:43;-12706.38;;;14.46;100.00
14594;BME280;7383;52.354;9.756;2023-03-22T09:54:15;-12707.16;;;14.50;100.00
14594;BME280;7383;52.354;9.756;2023-03-22T09:56:46;-12706.72;;;14.48;100.00
14594;BME280;7383;52.354;9.756;2023-03-22T09:59:21;-12707.34;;;14.51;100.00
14594;BME280;7383;52.354;9.756;2023-03-22T10:01:54;-12708.47;;;14.58;100.00
14594;BME280;7383;52.354;9.756;2023-03-22T10:04:39;-12710.22;;;14.68;100.00
14594;BME280;7383;52.354;9.756;2023-03-22T10:07:16;-12709.50;;;14.64;100.00
14594;BME280;7383;52.354;9.756;2023-03-22T10:09:50;-12709.94;;;14.66;100.00
14594;BME280;7383;52.354;9.756;2023-03-22T10:12:22;-12710.63;;;14.70;100.00
14594;BME280;7383;52.354;9.756;2023-03-22T10:15:01;-12710.72;;;14.71;100.00
14594;BME280;7383;52.354;9.756;2023-03-22T10:17:29;-12711.84;;;14.77;100.00
14594;BME280;7383;52.354;9.756;2023-03-22T10:19:59;-12712.88;;;14.84;100.00
14594;BME280;7383;52.354;9.756;2023-03-22T10:22:32;-12715.06;;;14.96;100.00
14594;BME280;7383;52.354;9.756;2023-03-22T10:25:00;-12716.19;;;15.03;100.00
14594;BME280;7383;52.354;9.756;2023-03-22T10:27:29;-12718.63;;;15.17;100.00
14594;BME280;7383;52.354;9.756;2023-03-22T10:30:00;-12719.06;;;15.19;100.00
14594;BME280;7383;52.354;9.756;2023-03-22T10:32:33;-12719.66;;;15.23;100.00
14594;BME280;7383;52.354;9.756;2023-03-22T10:35:02;-12719.91;;;15.24;100.00
14594;BME280;7383;52.354;9.756;2023-03-22T10:37:30;-12720.44;;;15.27;100.00
14594;BME280;7383;52.354;9.756;2023-03-22T10:40:00;-12721.91;;;15.36;100.00
14594;BME280;7383;52.354;9.756;2023-03-22T10:42:34;-12724.50;;;15.51;100.00
14594;BME280;7383;52.354;9.756;2023-03-22T10:45:06;-12726.25;;;15.61;100.00
14594;BME280;7383;52.354;9.756;2023-03-22T10:47:46;-12727.63;;;15.69;100.00
14594;BME280;7383;52.354;9.756;2023-03-22T10:50:19;-12729.63;;;15.81;100.00
14594;BME280;7383;52.354;9.756;2023-03-22T10:52:51;-12729.19;;;15.79;100.00
14594;BME280;7383;52.354;9.756;2023-03-22T10:55:23;-12730.50;;;15.86;100.00
14594;BME280;7383;52.354;9.756;2023-03-22T10:57:56;-12729.28;;;15.79;100.00
14594;BME280;7383;52.354;9.756;2023-03-22T11:00:29;-12728.50;;;15.74;100.00
14594;BME280;7383;52.354;9.756;2023-03-22T11:02:58;-12727.97;;;15.71;100.00
14594;BME280;7383;52.354;9.756;2023-03-22T11:05:27;-12727.72;;;15.70;100.00
14594;BME280;7383;52.354;9.756;2023-03-22T11:07:55;-12725.63;;;15.58;100.00
14594;BME280;7383;52.354;9.756;2023-03-22T11:10:28;-12726.69;;;15.64;100.00
14594;BME280;7383;52.354;9.756;2023-03-22T11:13:11;-12728.84;;;15.77;100.00
14594;BME280;7383;52.354;9.756;2023-03-22T11:15:49;-12730.31;;;15.85;100.00
14594;BME280;7383;52.354;9.756;2023-03-22T11:18:18;-12730.31;;;15.85;100.00
14594;BME280;7383;52.354;9.756;2023-03-22T11:20:54;-12730.16;;;15.84;100.00
14594;BME280;7383;52.354;9.756;2023-03-22T11:23:22;-12730.06;;;15.84;100.00
14594;BME280;7383;52.354;9.756;2023-03-22T11:25:49;-12731.88;;;15.94;100.00
14594;BME280;7383;52.354;9.756;2023-03-22T11:28:18;-12733.00;;;16.01;100.00
14594;BME280;7383;52.354;9.756;2023-03-22T11:31:05;-12731.19;;;15.90;100.00
14594;BME280;7383;52.354;9.756;2023-03-22T11:33:33;-12731.28;;;15.91;100.00
14594;BME280;7383;52.354;9.756;2023-03-22T11:36:00;-12731.78;;;15.94;100.00
14594;BME280;7383;52.354;9.756;2023-03-22T11:38:34;-12731.00;;;15.89;100.00
14594;BME280;7383;52.354;9.756;2023-03-22T11:41:02;-12731.34;;;15.91;100.00
14594;BME280;7383;52.354;9.756;2023-03-22T11:43:32;-12732.66;;;15.99;100.00
14594;BME280;7383;52.354;9.756;2023-03-22T11:46:00;-12735.00;;;16.12;100.00
14594;BME280;7383;52.354;9.756;2023-03-22T11:48:29;-12737.41;;;16.27;100.00
14594;BME280;7383;52.354;9.756;2023-03-22T11:51:04;-12739.56;;;16.39;100.00
14594;BME280;7383;52.354;9.756;2023-03-22T11:53:36;-12738.63;;;16.34;100.00
14594;BME280;7383;52.354;9.756;2023-03-22T11:56:05;-12740.19;;;16.43;100.00
14594;BME280;7383;52.354;9.756;2023-03-22T11:58:55;-12744.50;;;16.68;100.00
14594;BME280;7383;52.354;9.756;2023-03-22T12:01:31;-12746.75;;;16.81;100.00
14594;BME280;7383;52.354;9.756;2023-03-22T12:04:04;-12749.69;;;16.98;100.00
14594;BME280;7383;52.354;9.756;2023-03-22T12:06:36;-12749.53;;;16.97;100.00
14594;BME280;7383;52.354;9.756;2023-03-22T12:09:09;-12747.63;;;16.86;100.00
14594;BME280;7383;52.354;9.756;2023-03-22T12:11:45;-12746.59;;;16.80;100.00
14594;BME280;7383;52.354;9.756;2023-03-22T12:14:15;-12747.00;;;16.83;100.00
14594;BME280;7383;52.354;9.756;2023-03-22T12:16:46;-12747.28;;;16.84;100.00
14594;BME280;7383;52.354;9.756;2023-03-22T12:19:22;-12749.88;;;16.99;100.00
14594;BME280;7383;52.354;9.756;2023-03-22T12:21:53;-12747.63;;;16.86;100.00
14594;BME280;7383;52.354;9.756;2023-03-22T12:24:26;-12746.59;;;16.80;100.00
14594;BME280;7383;52.354;9.756;2023-03-22T12:26:57;-12748.16;;;16.89;100.00
14594;BME280;7383;52.354;9.756;2023-03-22T12:29:25;-12748.41;;;16.91;100.00
14594;BME280;7383;52.354;9.756;2023-03-22T12:31:58;-12747.53;;;16.86;100.00
14594;BME280;7383;52.354;9.756;2023-03-22T12:34:35;-12748.06;;;16.89;100.00
14594;BME280;7383;52.354;9.756;2023-03-22T12:37:05;-12747.72;;;16.87;100.00
14594;BME280;7383;52.354;9.756;2023-03-22T12:39:38;-12746.66;;;16.81;100.00
14594;BME280;7383;52.354;9.756;2023-03-22T12:42:12;-12745.72;;;16.75;100.00
14594;BME280;7383;52.354;9.756;2023-03-22T12:44:42;-12743.38;;;16.61;100.00
14594;BME280;7383;52.354;9.756;2023-03-22T12:47:15;-12742.00;;;16.53;100.00
14594;BME280;7383;52.354;9.756;2023-03-22T12:49:51;-12740.53;;;16.45;100.00
14594;BME280;7383;52.354;9.756;2023-03-22T12:52:23;-12739.66;;;16.40;100.00
14594;BME280;7383;52.354;9.756;2023-03-22T12:54:54;-12739.56;;;16.39;100.00
14594;BME280;7383;52.354;9.756;2023-03-22T12:57:23;-12740.69;;;16.46;100.00
14594;BME280;7383;52.354;9.756;2023-03-22T12:59:52;-12739.16;;;16.37;100.00
14594;BME280;7383;52.354;9.756;2023-03-22T13:02:26;-12741.03;;;16.48;100.00
14594;BME280;7383;52.354;9.756;2023-03-22T13:04:58;-12743.47;;;16.62;100.00
14594;BME280;7383;52.354;9.756;2023-03-22T13:07:40;-12744.34;;;16.67;100.00